sensor_id;sensor_type;location;lat;lon;timestamp;pressure;altitude;pressure_sealevel;temperature;humidity
8705;BME280;4389;41.932;25.904;2024-01-07T00:02:00;-16399.47;;;12.43;100.00
8705;BME280;4389;41.932;25.904;2024-01-07T00:04:26;-16398.94;;;12.41;100.00
8705;BME280;4389;41.932;25.904;2024-01-07T00:06:53;-16397.09;;;12.34;100.00
8705;BME280;4389;41.932;25.904;2024-01-07T00:09:20;-16395.75;;;12.29;100.00
8705;BME280;4389;41.932;25.904;2024-01-07T00:11:47;-16393.91;;;12.22;100.00
8705;BME280;4389;41.932;25.904;2024-01-07T00:14:15;-16392.84;;;12.18;100.00
8705;BME280;4389;41.932;25.904;2024-01-07T00:16:43;-16396.03;;;12.30;100.00
8705;BME280;4389;41.932;25.904;2024-01-07T00:19:10;-16396.03;;;12.30;100.00
8705;BME280;4389;41.932;25.904;2024-01-07T00:21:37;-16395.63;;;12.29;100.00
8705;BME280;4389;41.932;25.904;2024-01-07T00:24:04;-16394.44;;;12.24;100.00
8705;BME280;4389;41.932;25.904;2024-01-07T00:26:31;-16392.03;;;12.15;100.00
8705;BME280;4389;41.932;25.904;2024-01-07T00:28:58;-16392.69;;;12.18;100.00
8705;BME280;4389;41.932;25.904;2024-01-07T00:31:25;-16392.03;;;12.15;100.00
8705;BME280;4389;41.932;25.904;2024-01-07T00:33:53;-16392.69;;;12.18;100.00
8705;BME280;4389;41.932;25.904;2024-01-07T00:36:20;-16394.16;;;12.23;100.00
8705;BME280;4389;41.932;25.904;2024-01-07T00:38:46;-16392.84;;;12.18;100.00
8705;BME280;4389;41.932;25.904;2024-01-07T00:41:13;-16393.38;;;12.20;100.00
8705;BME280;4389;41.932;25.904;2024-01-07T00:43:40;-16394.28;;;12.24;100.00
8705;BME280;4389;41.932;25.904;2024-01-07T00:46:07;-16397.47;;;12.36;100.00
8705;BME280;4389;41.932;25.904;2024-01-07T00:48:34;-16398.16;;;12.38;100.00
8705;BME280;4389;41.932;25.904;2024-01-07T00:51:03;-16396.56;;;12.32;100.00
8705;BME280;4389;41.932;25.904;2024-01-07T00:53:30;-16396.28;;;12.31;100.00
8705;BME280;4389;41.932;25.904;2024-01-07T00:55:57;-16398.16;;;12.38;100.00
8705;BME280;4389;41.932;25.904;2024-01-07T00:58:23;-16400.81;;;12.48;100.00
8705;BME280;4389;41.932;25.904;2024-01-07T01:00:50;-16400.81;;;12.48;100.00
8705;BME280;4389;41.932;25.904;2024-01-07T01:03:19;-16401.47;;;12.51;100.00
8705;BME280;4389;41.932;25.904;2024-01-07T01:05:46;-16401.59;;;12.51;100.00
8705;BME280;4389;41.932;25.904;2024-01-07T01:08:14;-16400.66;;;12.48;100.00
8705;BME280;4389;41.932;25.904;2024-01-07T01:10:41;-16399.47;;;12.43;100.00
8705;BME280;4389;41.932;25.904;2024-01-07T01:13:08;-16399.22;;;12.42;100.00
8705;BME280;4389;41.932;25.904;2024-01-07T01:15:35;-16398.81;;;12.41;100.00
8705;BME280;4389;41.932;25.904;2024-01-07T01:18:01;-16400.53;;;12.47;100.00
8705;BME280;4389;41.932;25.904;2024-01-07T01:20:28;-16400.53;;;12.47;100.00
8705;BME280;4389;41.932;25.904;2024-01-07T01:22:55;-16399.75;;;12.44;100.00
8705;BME280;4389;41.932;25.904;2024-01-07T01:25:23;-16401.34;;;12.50;100.00
8705;BME280;4389;41.932;25.904;2024-01-07T01:27:50;-16402.66;;;12.55;100.00
8705;BME280;4389;41.932;25.904;2024-01-07T01:30:17;-16402.94;;;12.56;100.00
8705;BME280;4389;41.932;25.904;2024-01-07T01:32:43;-16402.66;;;12.55;100.00
8705;BME280;4389;41.932;25.904;2024-01-07T01:35:11;-16401.88;;;12.52;100.00
8705;BME280;4389;41.932;25.904;2024-01-07T01:37:38;-16399.22;;;12.42;100.00
8705;BME280;4389;41.932;25.904;2024-01-07T01:40:05;-16399.22;;;12.42;100.00
8705;BME280;4389;41.932;25.904;2024-01-07T01:42:33;-16398.53;;;12.40;100.00
8705;BME280;4389;41.932;25.904;2024-01-07T01:45:00;-16399.88;;;12.45;100.00
8705;BME280;4389;41.932;25.904;2024-01-07T01:47:28;-16399.63;;;12.44;100.00
8705;BME280;4389;41.932;25.904;2024-01-07T01:49:55;-16399.75;;;12.44;100.00
8705;BME280;4389;41.932;25.904;2024-01-07T01:52:22;-16400.53;;;12.47;100.00
8705;BME280;4389;41.932;25.904;2024-01-07T01:54:49;-16398.94;;;12.41;100.00
8705;BME280;4389;41.932;25.904;2024-01-07T01:57:19;-16396.94;;;12.34;100.00
8705;BME280;4389;41.932;25.904;2024-01-07T01:59:49;-16396.28;;;12.31;100.00
8705;BME280;4389;41.932;25.904;2024-01-07T02:02:16;-16394.97;;;12.26;100.00
8705;BME280;4389;41.932;25.904;2024-01-07T02:04:43;-16395.50;;;12.28;100.00
8705;BME280;4389;41.932;25.904;2024-01-07T02:07:10;-16392.84;;;12.18;100.00
8705;BME280;4389;41.932;25.904;2024-01-07T02:09:37;-16393.38;;;12.20;100.00
8705;BME280;4389;41.932;25.904;2024-01-07T02:12:06;-16394.28;;;12.24;100.00
8705;BME280;4389;41.932;25.904;2024-01-07T02:14:37;-16393.63;;;12.21;100.00
8705;BME280;4389;41.932;25.904;2024-01-07T02:17:09;-16393.38;;;12.20;100.00
8705;BME280;4389;41.932;25.904;2024-01-07T02:19:35;-16392.16;;;12.16;100.00
8705;BME280;4389;41.932;25.904;2024-01-07T02:22:03;-16392.03;;;12.15;100.00
8705;BME280;4389;41.932;25.904;2024-01-07T02:24:31;-16392.03;;;12.15;100.00
8705;BME280;4389;41.932;25.904;2024-01-07T02:26:58;-16390.03;;;12.08;100.00
8705;BME280;4389;41.932;25.904;2024-01-07T02:29:27;-16389.91;;;12.07;100.00
8705;BME280;4389;41.932;25.904;2024-01-07T02:31:54;-16389.38;;;12.05;100.00
8705;BME280;4389;41.932;25.904;2024-01-07T02:34:21;-16389.66;;;12.06;100.00
8705;BME280;4389;41.932;25.904;2024-01-07T02:36:48;-16391.25;;;12.12;100.00
8705;BME280;4389;41.932;25.904;2024-01-07T02:39:14;-16388.56;;;12.02;100.00
8705;BME280;4389;41.932;25.904;2024-01-07T02:41:44;-16389.50;;;12.06;100.00
8705;BME280;4389;41.932;25.904;2024-01-07T02:44:11;-16387.66;;;11.99;100.00
8705;BME280;4389;41.932;25.904;2024-01-07T02:46:38;-16386.72;;;11.95;100.00
8705;BME280;4389;41.932;25.904;2024-01-07T02:49:05;-16387.25;;;11.97;100.00
8705;BME280;4389;41.932;25.904;2024-01-07T02:51:31;-16386.06;;;11.93;100.00
8705;BME280;4389;41.932;25.904;2024-01-07T02:53:59;-16387.25;;;11.97;100.00
8705;BME280;4389;41.932;25.904;2024-01-07T02:56:25;-16384.31;;;11.86;100.00
8705;BME280;4389;41.932;25.904;2024-01-07T02:58:53;-16384.06;;;11.85;100.00
8705;BME280;4389;41.932;25.904;2024-01-07T03:01:21;-16384.19;;;11.86;100.00
8705;BME280;4389;41.932;25.904;2024-01-07T03:03:49;-16386.06;;;11.93;100.00
8705;BME280;4389;41.932;25.904;2024-01-07T03:06:15;-16385.25;;;11.90;100.00
8705;BME280;4389;41.932;25.904;2024-01-07T03:08:42;-16384.84;;;11.88;100.00
8705;BME280;4389;41.932;25.904;2024-01-07T03:11:09;-16385.91;;;11.92;100.00
8705;BME280;4389;41.932;25.904;2024-01-07T03:13:36;-16386.44;;;11.94;100.00
8705;BME280;4389;41.932;25.904;2024-01-07T03:16:05;-16386.19;;;11.93;100.00
8705;BME280;4389;41.932;25.904;2024-01-07T03:18:33;-16385.66;;;11.91;100.00
8705;BME280;4389;41.932;25.904;2024-01-07T03:21:00;-16385.53;;;11.91;100.00
8705;BME280;4389;41.932;25.904;2024-01-07T03:23:26;-16386.44;;;11.94;100.00
8705;BME280;4389;41.932;25.904;2024-01-07T03:25:53;-16385.41;;;11.90;100.00
8705;BME280;4389;41.932;25.904;2024-01-07T03:28:20;-16384.31;;;11.86;100.00
8705;BME280;4389;41.932;25.904;2024-01-07T03:30:47;-16386.44;;;11.94;100.00
8705;BME280;4389;41.932;25.904;2024-01-07T03:33:15;-16389.50;;;12.06;100.00
8705;BME280;4389;41.932;25.904;2024-01-07T03:35:41;-16391.50;;;12.13;100.00
8705;BME280;4389;41.932;25.904;2024-01-07T03:38:08;-16394.69;;;12.25;100.00
8705;BME280;4389;41.932;25.904;2024-01-07T03:40:35;-16397.09;;;12.34;100.00
8705;BME280;4389;41.932;25.904;2024-01-07T03:43:02;-16394.16;;;12.23;100.00
8705;BME280;4389;41.932;25.904;2024-01-07T03:45:29;-16395.22;;;12.27;100.00
8705;BME280;4389;41.932;25.904;2024-01-07T03:47:56;-16396.28;;;12.31;100.00
8705;BME280;4389;41.932;25.904;2024-01-07T03:50:24;-16394.03;;;12.23;100.00
8705;BME280;4389;41.932;25.904;2024-01-07T03:52:51;-16394.28;;;12.24;100.00
8705;BME280;4389;41.932;25.904;2024-01-07T03:55:18;-16394.16;;;12.23;100.00
8705;BME280;4389;41.932;25.904;2024-01-07T03:57:45;-16394.03;;;12.23;100.00
8705;BME280;4389;41.932;25.904;2024-01-07T04:00:12;-16398.16;;;12.38;100.00
8705;BME280;4389;41.932;25.904;2024-01-07T04:02:39;-16399.47;;;12.43;100.00
8705;BME280;4389;41.932;25.904;2024-01-07T04:05:06;-16400.53;;;12.47;100.00
8705;BME280;4389;41.932;25.904;2024-01-07T04:07:34;-16398.53;;;12.40;100.00
8705;BME280;4389;41.932;25.904;2024-01-07T04:10:01;-16396.41;;;12.32;100.00
8705;BME280;4389;41.932;25.904;2024-01-07T04:12:28;-16397.22;;;12.35;100.00
8705;BME280;4389;41.932;25.904;2024-01-07T04:14:54;-16397.34;;;12.35;100.00
8705;BME280;4389;41.932;25.904;2024-01-07T04:17:21;-16397.47;;;12.36;100.00
8705;BME280;4389;41.932;25.904;2024-01-07T04:19:48;-16395.75;;;12.29;100.00
8705;BME280;4389;41.932;25.904;2024-01-07T04:22:15;-16396.41;;;12.32;100.00
8705;BME280;4389;41.932;25.904;2024-01-07T04:24:44;-16395.34;;;12.28;100.00
8705;BME280;4389;41.932;25.904;2024-01-07T04:27:10;-16395.34;;;12.28;100.00
8705;BME280;4389;41.932;25.904;2024-01-07T04:29:37;-16395.50;;;12.28;100.00
8705;BME280;4389;41.932;25.904;2024-01-07T04:32:04;-16395.50;;;12.28;100.00
8705;BME280;4389;41.932;25.904;2024-01-07T04:34:31;-16392.97;;;12.19;100.00
8705;BME280;4389;41.932;25.904;2024-01-07T04:36:58;-16392.56;;;12.17;100.00
8705;BME280;4389;41.932;25.904;2024-01-07T04:39:24;-16391.78;;;12.14;100.00
8705;BME280;4389;41.932;25.904;2024-01-07T04:41:53;-16393.09;;;12.19;100.00
8705;BME280;4389;41.932;25.904;2024-01-07T04:44:20;-16390.84;;;12.11;100.00
8705;BME280;4389;41.932;25.904;2024-01-07T04:46:47;-16388.56;;;12.02;100.00
8705;BME280;4389;41.932;25.904;2024-01-07T04:49:14;-16387.53;;;11.98;100.00
8705;BME280;4389;41.932;25.904;2024-01-07T04:51:41;-16385.13;;;11.89;100.00
8705;BME280;4389;41.932;25.904;2024-01-07T04:54:07;-16385.13;;;11.89;100.00
8705;BME280;4389;41.932;25.904;2024-01-07T04:56:34;-16383.00;;;11.81;100.00
8705;BME280;4389;41.932;25.904;2024-01-07T04:59:02;-16380.59;;;11.72;100.00
8705;BME280;4389;41.932;25.904;2024-01-07T05:01:29;-16379.81;;;11.69;100.00
8705;BME280;4389;41.932;25.904;2024-01-07T05:03:58;-16377.41;;;11.60;100.00
8705;BME280;4389;41.932;25.904;2024-01-07T05:06:25;-16376.63;;;11.57;100.00
8705;BME280;4389;41.932;25.904;2024-01-07T05:08:52;-16374.34;;;11.49;100.00
8705;BME280;4389;41.932;25.904;2024-01-07T05:11:19;-16371.81;;;11.39;100.00
8705;BME280;4389;41.932;25.904;2024-01-07T05:13:45;-16372.38;;;11.41;100.00
8705;BME280;4389;41.932;25.904;2024-01-07T05:16:19;-16371.03;;;11.36;100.00
8705;BME280;4389;41.932;25.904;2024-01-07T05:18:46;-16370.09;;;11.33;100.00
8705;BME280;4389;41.932;25.904;2024-01-07T05:21:14;-16369.03;;;11.29;100.00
8705;BME280;4389;41.932;25.904;2024-01-07T05:23:39;-16369.44;;;11.30;100.00
8705;BME280;4389;41.932;25.904;2024-01-07T05:26:06;-16369.44;;;11.30;100.00
8705;BME280;4389;41.932;25.904;2024-01-07T05:28:33;-16367.56;;;11.23;100.00
8705;BME280;4389;41.932;25.904;2024-01-07T05:31:00;-16366.63;;;11.20;100.00
8705;BME280;4389;41.932;25.904;2024-01-07T05:33:28;-16367.84;;;11.24;100.00
8705;BME280;4389;41.932;25.904;2024-01-07T05:35:55;-16367.03;;;11.21;100.00
8705;BME280;4389;41.932;25.904;2024-01-07T05:38:21;-16367.56;;;11.23;100.00
8705;BME280;4389;41.932;25.904;2024-01-07T05:40:48;-16368.91;;;11.28;100.00
8705;BME280;4389;41.932;25.904;2024-01-07T05:43:15;-16365.44;;;11.15;100.00
8705;BME280;4389;41.932;25.904;2024-01-07T05:45:42;-16364.66;;;11.12;100.00
8705;BME280;4389;41.932;25.904;2024-01-07T05:48:08;-16364.38;;;11.11;100.00
8705;BME280;4389;41.932;25.904;2024-01-07T05:50:37;-16363.06;;;11.06;100.00
8705;BME280;4389;41.932;25.904;2024-01-07T05:53:04;-16360.66;;;10.97;100.00
8705;BME280;4389;41.932;25.904;2024-01-07T05:55:31;-16361.72;;;11.01;100.00
8705;BME280;4389;41.932;25.904;2024-01-07T05:57:57;-16356.94;;;10.83;100.00
8705;BME280;4389;41.932;25.904;2024-01-07T06:00:24;-16358.25;;;10.88;100.00
8705;BME280;4389;41.932;25.904;2024-01-07T06:02:51;-16358.66;;;10.90;100.00
8705;BME280;4389;41.932;25.904;2024-01-07T06:05:18;-16356.94;;;10.83;100.00
8705;BME280;4389;41.932;25.904;2024-01-07T06:07:46;-16356.41;;;10.81;100.00
8705;BME280;4389;41.932;25.904;2024-01-07T06:10:13;-16353.47;;;10.70;100.00
8705;BME280;4389;41.932;25.904;2024-01-07T06:12:40;-16354.81;;;10.75;100.00
8705;BME280;4389;41.932;25.904;2024-01-07T06:15:07;-16352.94;;;10.68;100.00
8705;BME280;4389;41.932;25.904;2024-01-07T06:17:34;-16355.06;;;10.76;100.00
8705;BME280;4389;41.932;25.904;2024-01-07T06:20:01;-16356.66;;;10.82;100.00
8705;BME280;4389;41.932;25.904;2024-01-07T06:22:29;-16355.22;;;10.77;100.00
8705;BME280;4389;41.932;25.904;2024-01-07T06:24:57;-16356.66;;;10.82;100.00
8705;BME280;4389;41.932;25.904;2024-01-07T06:27:24;-16356.94;;;10.83;100.00
8705;BME280;4389;41.932;25.904;2024-01-07T06:29:50;-16359.06;;;10.91;100.00
8705;BME280;4389;41.932;25.904;2024-01-07T06:32:17;-16361.72;;;11.01;100.00
8705;BME280;4389;41.932;25.904;2024-01-07T06:34:44;-16363.19;;;11.07;100.00
8705;BME280;4389;41.932;25.904;2024-01-07T06:37:11;-16364.38;;;11.11;100.00
8705;BME280;4389;41.932;25.904;2024-01-07T06:39:38;-16365.44;;;11.15;100.00
8705;BME280;4389;41.932;25.904;2024-01-07T06:42:06;-16364.66;;;11.12;100.00
8705;BME280;4389;41.932;25.904;2024-01-07T06:44:33;-16364.38;;;11.11;100.00
8705;BME280;4389;41.932;25.904;2024-01-07T06:47:00;-16363.72;;;11.09;100.00
8705;BME280;4389;41.932;25.904;2024-01-07T06:49:26;-16364.13;;;11.10;100.00
8705;BME280;4389;41.932;25.904;2024-01-07T06:51:53;-16363.06;;;11.06;100.00
8705;BME280;4389;41.932;25.904;2024-01-07T06:54:19;-16360.66;;;10.97;100.00
8705;BME280;4389;41.932;25.904;2024-01-07T06:56:46;-16360.38;;;10.96;100.00
8705;BME280;4389;41.932;25.904;2024-01-07T06:59:14;-16360.38;;;10.96;100.00
8705;BME280;4389;41.932;25.904;2024-01-07T07:01:41;-16359.72;;;10.94;100.00
8705;BME280;4389;41.932;25.904;2024-01-07T07:04:08;-16359.59;;;10.93;100.00
8705;BME280;4389;41.932;25.904;2024-01-07T07:06:35;-16360.53;;;10.97;100.00
8705;BME280;4389;41.932;25.904;2024-01-07T07:09:02;-16362.00;;;11.02;100.00
8705;BME280;4389;41.932;25.904;2024-01-07T07:11:29;-16362.13;;;11.03;100.00
8705;BME280;4389;41.932;25.904;2024-01-07T07:13:56;-16363.59;;;11.08;100.00
8705;BME280;4389;41.932;25.904;2024-01-07T07:16:25;-16368.91;;;11.28;100.00
8705;BME280;4389;41.932;25.904;2024-01-07T07:18:51;-16375.81;;;11.54;100.00
8705;BME280;4389;41.932;25.904;2024-01-07T07:21:19;-16381.66;;;11.76;100.00
8705;BME280;4389;41.932;25.904;2024-01-07T07:23:45;-16390.03;;;12.08;100.00
8705;BME280;4389;41.932;25.904;2024-01-07T07:26:12;-16396.81;;;12.33;100.00
8705;BME280;4389;41.932;25.904;2024-01-07T07:28:39;-16401.88;;;12.52;100.00
8705;BME280;4389;41.932;25.904;2024-01-07T07:31:06;-16401.47;;;12.51;100.00
8705;BME280;4389;41.932;25.904;2024-01-07T07:33:34;-16402.41;;;12.54;100.00
8705;BME280;4389;41.932;25.904;2024-01-07T07:36:00;-16401.88;;;12.52;100.00
8705;BME280;4389;41.932;25.904;2024-01-07T07:38:27;-16398.00;;;12.38;100.00
8705;BME280;4389;41.932;25.904;2024-01-07T07:40:54;-16395.34;;;12.28;100.00
8705;BME280;4389;41.932;25.904;2024-01-07T07:43:21;-16392.03;;;12.15;100.00
8705;BME280;4389;41.932;25.904;2024-01-07T07:45:47;-16389.38;;;12.05;100.00
8705;BME280;4389;41.932;25.904;2024-01-07T07:48:14;-16385.66;;;11.91;100.00
8705;BME280;4389;41.932;25.904;2024-01-07T07:50:43;-16387.25;;;11.97;100.00
8705;BME280;4389;41.932;25.904;2024-01-07T07:53:10;-16386.97;;;11.96;100.00
8705;BME280;4389;41.932;25.904;2024-01-07T07:55:37;-16390.56;;;12.10;100.00
8705;BME280;4389;41.932;25.904;2024-01-07T07:58:04;-16393.91;;;12.22;100.00
8705;BME280;4389;41.932;25.904;2024-01-07T08:00:31;-16395.50;;;12.28;100.00
8705;BME280;4389;41.932;25.904;2024-01-07T08:02:57;-16394.44;;;12.24;100.00
8705;BME280;4389;41.932;25.904;2024-01-07T08:05:24;-16395.22;;;12.27;100.00
8705;BME280;4389;41.932;25.904;2024-01-07T08:07:52;-16395.50;;;12.28;100.00
8705;BME280;4389;41.932;25.904;2024-01-07T08:10:20;-16396.81;;;12.33;100.00
8705;BME280;4389;41.932;25.904;2024-01-07T08:12:51;-16401.59;;;12.51;100.00
8705;BME280;4389;41.932;25.904;2024-01-07T08:15:17;-16399.63;;;12.44;100.00
8705;BME280;4389;41.932;25.904;2024-01-07T08:17:44;-16401.34;;;12.50;100.00
8705;BME280;4389;41.932;25.904;2024-01-07T08:20:12;-16401.06;;;12.49;100.00
8705;BME280;4389;41.932;25.904;2024-01-07T08:22:39;-16402.66;;;12.55;100.00
8705;BME280;4389;41.932;25.904;2024-01-07T08:25:07;-16405.59;;;12.66;100.00
8705;BME280;4389;41.932;25.904;2024-01-07T08:27:34;-16409.84;;;12.82;100.00
8705;BME280;4389;41.932;25.904;2024-01-07T08:30:03;-16413.03;;;12.94;100.00
8705;BME280;4389;41.932;25.904;2024-01-07T08:32:30;-16414.63;;;13.00;100.00
8705;BME280;4389;41.932;25.904;2024-01-07T08:34:57;-16419.41;;;13.18;100.00
8705;BME280;4389;41.932;25.904;2024-01-07T08:37:24;-16425.13;;;13.40;100.00
8705;BME280;4389;41.932;25.904;2024-01-07T08:39:51;-16419.69;;;13.19;100.00
8705;BME280;4389;41.932;25.904;2024-01-07T08:42:21;-16416.34;;;13.07;100.00
8705;BME280;4389;41.932;25.904;2024-01-07T08:44:47;-16415.69;;;13.04;100.00
8705;BME280;4389;41.932;25.904;2024-01-07T08:47:15;-16420.22;;;13.21;100.00
8705;BME280;4389;41.932;25.904;2024-01-07T08:49:41;-16422.06;;;13.28;100.00
8705;BME280;4389;41.932;25.904;2024-01-07T08:52:08;-16423.25;;;13.33;100.00
8705;BME280;4389;41.932;25.904;2024-01-07T08:54:35;-16424.44;;;13.37;100.00
8705;BME280;4389;41.932;25.904;2024-01-07T08:57:02;-16425.53;;;13.41;100.00
8705;BME280;4389;41.932;25.904;2024-01-07T08:59:30;-16426.84;;;13.46;100.00
8705;BME280;4389;41.932;25.904;2024-01-07T09:01:57;-16424.84;;;13.39;100.00
8705;BME280;4389;41.932;25.904;2024-01-07T09:04:25;-16428.16;;;13.51;100.00
8705;BME280;4389;41.932;25.904;2024-01-07T09:06:52;-16430.69;;;13.61;100.00
8705;BME280;4389;41.932;25.904;2024-01-07T09:09:19;-16435.34;;;13.78;100.00
8705;BME280;4389;41.932;25.904;2024-01-07T09:11:45;-16436.81;;;13.83;100.00
8705;BME280;4389;41.932;25.904;2024-01-07T09:14:12;-16437.06;;;13.84;100.00
8705;BME280;4389;41.932;25.904;2024-01-07T09:16:41;-16436.94;;;13.84;100.00
8705;BME280;4389;41.932;25.904;2024-01-07T09:19:08;-16438.00;;;13.88;100.00
8705;BME280;4389;41.932;25.904;2024-01-07T09:21:35;-16439.06;;;13.92;100.00
8705;BME280;4389;41.932;25.904;2024-01-07T09:24:02;-16439.06;;;13.92;100.00
8705;BME280;4389;41.932;25.904;2024-01-07T09:26:28;-16443.19;;;14.07;100.00
8705;BME280;4389;41.932;25.904;2024-01-07T09:28:56;-16444.91;;;14.14;100.00
8705;BME280;4389;41.932;25.904;2024-01-07T09:31:23;-16447.84;;;14.25;100.00
8705;BME280;4389;41.932;25.904;2024-01-07T09:33:51;-16450.47;;;14.35;100.00
8705;BME280;4389;41.932;25.904;2024-01-07T09:36:18;-16456.06;;;14.56;100.00
8705;BME280;4389;41.932;25.904;2024-01-07T09:38:45;-16459.78;;;14.70;100.00
8705;BME280;4389;41.932;25.904;2024-01-07T09:41:11;-16462.16;;;14.79;100.00
8705;BME280;4389;41.932;25.904;2024-01-07T09:43:38;-16472.13;;;15.16;100.00
8705;BME280;4389;41.932;25.904;2024-01-07T09:46:05;-16474.91;;;15.27;100.00
8705;BME280;4389;41.932;25.904;2024-01-07T09:48:32;-16477.69;;;15.37;100.00
8705;BME280;4389;41.932;25.904;2024-01-07T09:51:00;-16479.28;;;15.43;100.00
8705;BME280;4389;41.932;25.904;2024-01-07T09:53:31;-16478.88;;;15.42;100.00
8705;BME280;4389;41.932;25.904;2024-01-07T09:56:06;-16477.03;;;15.35;100.00
8705;BME280;4389;41.932;25.904;2024-01-07T09:58:36;-16475.16;;;15.28;100.00
8705;BME280;4389;41.932;25.904;2024-01-07T10:01:04;-16478.63;;;15.41;100.00
8705;BME280;4389;41.932;25.904;2024-01-07T10:03:31;-16481.00;;;15.50;100.00
8705;BME280;4389;41.932;25.904;2024-01-07T10:05:59;-16484.47;;;15.63;100.00
8705;BME280;4389;41.932;25.904;2024-01-07T10:08:26;-16486.84;;;15.72;100.00
8705;BME280;4389;41.932;25.904;2024-01-07T10:10:52;-16489.91;;;15.83;100.00
8705;BME280;4389;41.932;25.904;2024-01-07T10:13:20;-16490.44;;;15.85;100.00
8705;BME280;4389;41.932;25.904;2024-01-07T10:15:48;-16495.06;;;16.03;100.00
8705;BME280;4389;41.932;25.904;2024-01-07T10:18:15;-16498.91;;;16.17;100.00
8705;BME280;4389;41.932;25.904;2024-01-07T10:20:42;-16506.59;;;16.46;100.00
8705;BME280;4389;41.932;25.904;2024-01-07T10:23:11;-16513.91;;;16.74;98.17
8705;BME280;4389;41.932;25.904;2024-01-07T10:25:39;-16519.59;;;16.95;95.44
8705;BME280;4389;41.932;25.904;2024-01-07T10:28:06;-16523.31;;;17.09;92.82
8705;BME280;4389;41.932;25.904;2024-01-07T10:30:33;-16523.97;;;17.12;92.36
8705;BME280;4389;41.932;25.904;2024-01-07T10:32:59;-16526.88;;;17.23;92.47
8705;BME280;4389;41.932;25.904;2024-01-07T10:35:29;-16529.00;;;17.31;90.08
8705;BME280;4389;41.932;25.904;2024-01-07T10:37:59;-16531.53;;;17.40;91.08
8705;BME280;4389;41.932;25.904;2024-01-07T10:40:29;-16527.69;;;17.26;87.57
8705;BME280;4389;41.932;25.904;2024-01-07T10:42:57;-16531.66;;;17.41;88.43
8705;BME280;4389;41.932;25.904;2024-01-07T10:45:24;-16528.34;;;17.28;87.22
8705;BME280;4389;41.932;25.904;2024-01-07T10:47:58;-16527.41;;;17.25;87.42
8705;BME280;4389;41.932;25.904;2024-01-07T10:50:26;-16529.28;;;17.32;88.23
8705;BME280;4389;41.932;25.904;2024-01-07T10:53:02;-16529.81;;;17.34;88.62
8705;BME280;4389;41.932;25.904;2024-01-07T10:55:34;-16532.06;;;17.42;90.60
8705;BME280;4389;41.932;25.904;2024-01-07T10:58:03;-16536.16;;;17.58;91.84
8705;BME280;4389;41.932;25.904;2024-01-07T11:00:31;-16536.16;;;17.58;95.30
8705;BME280;4389;41.932;25.904;2024-01-07T11:03:06;-16533.00;;;17.46;100.00
8705;BME280;4389;41.932;25.904;2024-01-07T11:05:40;-16529.81;;;17.34;100.00
8705;BME280;4389;41.932;25.904;2024-01-07T11:08:15;-16526.34;;;17.21;100.00
8705;BME280;4389;41.932;25.904;2024-01-07T11:10:49;-16525.56;;;17.18;100.00
8705;BME280;4389;41.932;25.904;2024-01-07T11:13:33;-16522.13;;;17.05;100.00
8705;BME280;4389;41.932;25.904;2024-01-07T11:16:01;-16515.75;;;16.81;100.00
8705;BME280;4389;41.932;25.904;2024-01-07T11:18:29;-16510.19;;;16.60;100.00
8705;BME280;4389;41.932;25.904;2024-01-07T11:20:59;-16512.56;;;16.69;100.00
8705;BME280;4389;41.932;25.904;2024-01-07T11:23:31;-16512.19;;;16.67;100.00
8705;BME280;4389;41.932;25.904;2024-01-07T11:26:01;-16514.56;;;16.76;100.00
8705;BME280;4389;41.932;25.904;2024-01-07T11:28:45;-16513.50;;;16.72;100.00
8705;BME280;4389;41.932;25.904;2024-01-07T11:31:12;-16508.88;;;16.55;100.00
8705;BME280;4389;41.932;25.904;2024-01-07T11:33:39;-16508.06;;;16.52;100.00
8705;BME280;4389;41.932;25.904;2024-01-07T11:36:08;-16507.28;;;16.49;100.00
8705;BME280;4389;41.932;25.904;2024-01-07T11:38:35;-16507.00;;;16.48;100.00
8705;BME280;4389;41.932;25.904;2024-01-07T11:41:05;-16508.72;;;16.54;100.00
8705;BME280;4389;41.932;25.904;2024-01-07T11:43:32;-16509.94;;;16.59;100.00
8705;BME280;4389;41.932;25.904;2024-01-07T11:45:59;-16513.09;;;16.71;100.00
8705;BME280;4389;41.932;25.904;2024-01-07T11:48:26;-16509.94;;;16.59;100.00
8705;BME280;4389;41.932;25.904;2024-01-07T11:50:53;-16510.97;;;16.63;100.00
8705;BME280;4389;41.932;25.904;2024-01-07T11:53:20;-16508.06;;;16.52;100.00
8705;BME280;4389;41.932;25.904;2024-01-07T11:55:47;-16508.34;;;16.53;100.00
8705;BME280;4389;41.932;25.904;2024-01-07T11:58:15;-16512.03;;;16.67;100.00
8705;BME280;4389;41.932;25.904;2024-01-07T12:00:42;-16513.38;;;16.72;100.00
8705;BME280;4389;41.932;25.904;2024-01-07T12:03:09;-16512.69;;;16.69;100.00
8705;BME280;4389;41.932;25.904;2024-01-07T12:05:37;-16515.09;;;16.78;100.00
8705;BME280;4389;41.932;25.904;2024-01-07T12:08:04;-16515.22;;;16.79;100.00
8705;BME280;4389;41.932;25.904;2024-01-07T12:10:31;-16517.88;;;16.89;100.00
8705;BME280;4389;41.932;25.904;2024-01-07T12:12:58;-16519.47;;;16.95;100.00
8705;BME280;4389;41.932;25.904;2024-01-07T12:15:27;-16517.88;;;16.89;100.00
8705;BME280;4389;41.932;25.904;2024-01-07T12:17:58;-16518.53;;;16.91;100.00
8705;BME280;4389;41.932;25.904;2024-01-07T12:20:27;-16519.06;;;16.93;100.00
8705;BME280;4389;41.932;25.904;2024-01-07T12:22:57;-16515.22;;;16.79;100.00
8705;BME280;4389;41.932;25.904;2024-01-07T12:25:24;-16516.81;;;16.85;100.00
8705;BME280;4389;41.932;25.904;2024-01-07T12:27:51;-16521.59;;;17.03;100.00
8705;BME280;4389;41.932;25.904;2024-01-07T12:30:20;-16523.72;;;17.11;100.00
8705;BME280;4389;41.932;25.904;2024-01-07T12:32:51;-16522.78;;;17.07;100.00
8705;BME280;4389;41.932;25.904;2024-01-07T12:35:18;-16525.81;;;17.19;100.00
8705;BME280;4389;41.932;25.904;2024-01-07T12:37:45;-16526.50;;;17.21;100.00
8705;BME280;4389;41.932;25.904;2024-01-07T12:40:12;-16527.41;;;17.25;100.00
8705;BME280;4389;41.932;25.904;2024-01-07T12:42:38;-16528.88;;;17.30;100.00
8705;BME280;4389;41.932;25.904;2024-01-07T12:45:11;-16531.53;;;17.40;99.41
8705;BME280;4389;41.932;25.904;2024-01-07T12:47:39;-16535.38;;;17.55;89.33
8705;BME280;4389;41.932;25.904;2024-01-07T12:50:08;-16536.03;;;17.57;83.31
8705;BME280;4389;41.932;25.904;2024-01-07T12:52:36;-16535.63;;;17.56;82.05